createdAt,value
2023-03-21T00:00:40.783Z,25.27
2023-03-21T00:03:07.868Z,29.08
2023-03-21T00:05:34.792Z,28.55
2023-03-21T00:08:02.657Z,26.95
2023-03-21T00:10:39.550Z,24.77
2023-03-21T00:13:08.526Z,22.58
2023-03-21T00:15:48.488Z,24.80
2023-03-21T00:18:25.893Z,20.88
2023-03-21T00:21:39.215Z,22.27
2023-03-21T00:23:55.137Z,29.40
2023-03-21T00:26:23.149Z,20.92
2023-03-21T00:28:50.393Z,25.25
2023-03-21T00:31:17.517Z,32.10
2023-03-21T00:33:44.568Z,18.63
2023-03-21T00:36:11.791Z,20.50
2023-03-21T00:38:39.267Z,18.25
2023-03-21T00:41:23.285Z,20.38
2023-03-21T00:43:55.677Z,16.35
2023-03-21T00:48:52.323Z,16.88
2023-03-21T00:51:26.801Z,17.17
2023-03-21T00:53:55.056Z,15.73
2023-03-21T00:56:21.985Z,15.18
2023-03-21T00:58:49.137Z,12.93
2023-03-21T01:01:15.928Z,15.80
2023-03-21T01:03:48.248Z,13.38
2023-03-21T01:06:19.801Z,12.45
2023-03-21T01:08:52.642Z,11.73
2023-03-21T01:11:22.869Z,11.30
2023-03-21T01:16:34.864Z,10.50
2023-03-21T01:19:05.013Z,11.00
2023-03-21T01:21:33.845Z,12.10
2023-03-21T01:24:01.919Z,12.25
2023-03-21T01:26:28.835Z,11.45
2023-03-21T01:28:55.670Z,11.13
2023-03-21T01:31:22.681Z,11.32
2023-03-21T01:33:49.489Z,11.13
2023-03-21T01:36:21.893Z,11.52
2023-03-21T01:38:50.021Z,10.10
2023-03-21T01:41:22.049Z,10.55
2023-03-21T01:43:49.918Z,10.45
2023-03-21T01:46:47.781Z,11.60
2023-03-21T01:49:21.806Z,11.68
2023-03-21T01:51:52.551Z,11.45
2023-03-21T01:54:25.411Z,12.20
2023-03-21T01:56:54.132Z,12.00
2023-03-21T01:59:24.963Z,12.05
2023-03-21T02:01:52.289Z,12.60
2023-03-21T02:04:22.446Z,12.32
2023-03-21T02:06:54.589Z,11.20
2023-03-21T02:09:23.094Z,11.85
2023-03-21T02:11:49.815Z,10.43
2023-03-21T02:14:28.235Z,11.02
2023-03-21T02:17:07.634Z,11.02
2023-03-21T02:20:14.084Z,11.90
2023-03-21T02:22:43.802Z,11.35
2023-03-21T02:25:54.963Z,13.55
2023-03-21T02:28:43.150Z,12.68
2023-03-21T02:31:20.427Z,17.05
2023-03-21T02:33:52.079Z,12.85
2023-03-21T02:36:31.627Z,13.90
2023-03-21T02:39:01.187Z,13.68
2023-03-21T02:41:45.915Z,16.17
2023-03-21T02:44:26.769Z,14.85
2023-03-21T02:47:05.362Z,15.63
2023-03-21T02:52:13.574Z,14.77
2023-03-21T02:54:48.361Z,14.43
2023-03-21T02:57:17.756Z,16.55
2023-03-21T02:59:54.333Z,17.55
2023-03-21T03:02:26.139Z,17.15
2023-03-21T03:04:52.959Z,15.38
2023-03-21T03:07:25.954Z,14.75
2023-03-21T03:10:18.459Z,13.30
2023-03-21T03:13:08.371Z,14.10
2023-03-21T03:15:42.111Z,13.38
2023-03-21T03:18:13.719Z,12.40
2023-03-21T03:21:11.287Z,12.02
2023-03-21T03:23:54.229Z,11.82
2023-03-21T03:26:31.483Z,13.68
2023-03-21T03:29:01.435Z,14.40
2023-03-21T03:31:38.170Z,13.75
2023-03-21T03:34:13.967Z,14.90
2023-03-21T03:36:42.389Z,13.15
2023-03-21T03:39:10.796Z,13.95
2023-03-21T03:42:10.230Z,14.60
2023-03-21T03:44:37.207Z,13.95
2023-03-21T03:47:34.779Z,14.80
2023-03-21T03:50:10.025Z,15.15
2023-03-21T03:52:50.127Z,14.10
2023-03-21T03:55:22.384Z,15.68
2023-03-21T03:57:49.393Z,14.20
2023-03-21T04:00:17.332Z,14.65
2023-03-21T04:02:44.131Z,14.98
2023-03-21T04:05:10.996Z,14.40
2023-03-21T04:07:37.735Z,14.40
2023-03-21T04:10:06.034Z,15.25
2023-03-21T04:12:32.890Z,13.73
2023-03-21T04:15:09.509Z,13.75
2023-03-21T04:17:36.993Z,13.32
2023-03-21T04:20:12.894Z,13.13
2023-03-21T04:22:43.621Z,13.68
2023-03-21T04:25:10.724Z,13.00
2023-03-21T04:27:37.679Z,13.70
2023-03-21T04:30:06.194Z,15.85
2023-03-21T04:32:34.020Z,13.88
2023-03-21T04:35:01.319Z,13.70
2023-03-21T04:37:28.210Z,14.30
2023-03-21T04:39:54.927Z,14.60
2023-03-21T04:42:21.995Z,14.90
2023-03-21T04:44:48.884Z,13.60
2023-03-21T04:47:21.048Z,15.70
2023-03-21T04:49:50.600Z,15.57
2023-03-21T04:52:17.361Z,17.42
2023-03-21T04:54:44.078Z,16.00
2023-03-21T04:57:10.983Z,15.30
2023-03-21T04:59:37.822Z,15.80
2023-03-21T05:02:04.586Z,14.77
2023-03-21T05:04:31.514Z,15.15
2023-03-21T05:06:58.871Z,15.70
2023-03-21T05:09:25.782Z,14.65
2023-03-21T05:11:52.726Z,15.52
2023-03-21T05:14:21.735Z,15.68
2023-03-21T05:16:53.636Z,15.93
2023-03-21T05:19:22.849Z,15.70
2023-03-21T05:21:50.080Z,15.52
2023-03-21T05:24:19.560Z,16.35
2023-03-21T05:26:52.814Z,19.98
2023-03-21T05:29:19.849Z,15.15
2023-03-21T05:31:46.694Z,16.40
2023-03-21T05:34:13.533Z,15.88
2023-03-21T05:36:40.535Z,17.60
2023-03-21T05:39:07.263Z,19.45
2023-03-21T05:41:34.005Z,18.77
2023-03-21T05:44:01.082Z,17.60
2023-03-21T05:46:27.869Z,17.20
2023-03-21T05:48:54.687Z,16.70
2023-03-21T05:51:21.478Z,19.17
2023-03-21T05:53:48.705Z,18.10
2023-03-21T05:56:15.666Z,18.15
2023-03-21T05:58:42.497Z,16.83
2023-03-21T06:01:09.406Z,16.90
2023-03-21T06:03:36.182Z,18.20
2023-03-21T06:06:03.815Z,19.23
2023-03-21T06:08:31.876Z,17.05
2023-03-21T06:10:58.685Z,18.33
2023-03-21T06:13:25.663Z,17.97
2023-03-21T06:15:52.562Z,18.10
2023-03-21T06:18:19.435Z,18.23
2023-03-21T06:20:46.296Z,17.50
2023-03-21T06:23:13.112Z,18.20
2023-03-21T06:25:39.998Z,19.55
2023-03-21T06:28:06.990Z,17.73
2023-03-21T06:30:33.729Z,21.42
2023-03-21T06:33:00.517Z,23.23
2023-03-21T06:35:27.398Z,19.80
2023-03-21T06:37:54.142Z,17.27
2023-03-21T06:40:21.179Z,17.80
2023-03-21T06:42:48.228Z,17.17
2023-03-21T06:45:15.004Z,16.38
2023-03-21T06:47:41.805Z,16.17
2023-03-21T06:50:09.655Z,18.83
2023-03-21T06:52:36.417Z,18.60
2023-03-21T06:55:03.248Z,16.33
2023-03-21T06:57:30.099Z,14.00
2023-03-21T06:59:57.012Z,16.05
2023-03-21T07:02:23.801Z,16.48
2023-03-21T07:04:51.327Z,16.33
2023-03-21T07:07:18.177Z,14.65
2023-03-21T07:09:44.924Z,14.85
2023-03-21T07:12:11.823Z,16.60
2023-03-21T07:14:38.551Z,15.65
2023-03-21T07:17:05.335Z,13.38
2023-03-21T07:19:32.146Z,16.70
2023-03-21T07:21:58.962Z,14.52
2023-03-21T07:24:26.365Z,14.85
2023-03-21T07:26:53.630Z,15.63
2023-03-21T07:29:23.266Z,16.88
2023-03-21T07:31:50.145Z,17.88
2023-03-21T07:34:17.984Z,17.52
2023-03-21T07:36:44.796Z,17.73
2023-03-21T07:39:11.941Z,20.77
2023-03-21T07:41:38.926Z,18.40
2023-03-21T07:46:33.478Z,19.65
2023-03-21T07:49:00.578Z,16.58
2023-03-21T07:51:27.484Z,15.35
2023-03-21T07:53:54.423Z,17.73
2023-03-21T07:56:22.031Z,19.75
2023-03-21T07:58:48.787Z,17.58
2023-03-21T08:01:16.031Z,20.92
2023-03-21T08:03:43.676Z,19.38
2023-03-21T08:06:10.651Z,40.22
2023-03-21T08:08:37.590Z,20.27
2023-03-21T08:11:04.851Z,19.50
2023-03-21T08:13:31.778Z,19.60
2023-03-21T08:15:58.604Z,19.92
2023-03-21T08:18:26.213Z,18.20
2023-03-21T08:20:54.294Z,20.38
2023-03-21T08:23:21.815Z,17.08
2023-03-21T08:25:53.174Z,18.20
2023-03-21T08:28:20.268Z,19.27
2023-03-21T08:30:47.433Z,17.20
2023-03-21T08:33:14.207Z,17.35
2023-03-21T08:35:41.551Z,16.63
2023-03-21T08:38:10.344Z,17.85
2023-03-21T08:40:37.407Z,15.73
2023-03-21T08:43:04.242Z,16.38
2023-03-21T08:45:31.194Z,15.90
2023-03-21T08:47:58.324Z,17.30
2023-03-21T08:50:26.608Z,16.30
2023-03-21T08:52:53.595Z,15.48
2023-03-21T08:55:20.567Z,28.90
2023-03-21T08:57:47.327Z,16.25
2023-03-21T09:00:17.338Z,14.80
2023-03-21T09:02:47.076Z,15.88
2023-03-21T09:07:41.006Z,15.57
2023-03-21T09:10:25.700Z,13.07
2023-03-21T09:12:53.827Z,13.93
2023-03-21T09:15:22.202Z,13.15
2023-03-21T09:17:53.215Z,16.85
2023-03-21T09:20:22.861Z,11.68
2023-03-21T09:25:17.227Z,11.20
2023-03-21T09:27:46.010Z,12.65
2023-03-21T09:30:14.558Z,13.05
2023-03-21T09:32:42.192Z,9.87
2023-03-21T09:35:11.547Z,9.45
2023-03-21T09:40:31.761Z,12.30
2023-03-21T09:43:16.423Z,11.55
2023-03-21T09:45:58.273Z,10.95
2023-03-21T09:48:57.893Z,11.02
2023-03-21T09:51:27.421Z,11.60
2023-03-21T09:53:56.969Z,11.15
2023-03-21T09:56:26.174Z,11.15
2023-03-21T09:58:55.068Z,10.23
2023-03-21T10:01:34.229Z,9.80
2023-03-21T10:04:03.621Z,12.20
2023-03-21T10:06:30.981Z,10.68
2023-03-21T10:09:01.321Z,10.70
2023-03-21T10:11:42.247Z,9.18
2023-03-21T10:14:20.713Z,9.55
2023-03-21T10:16:49.998Z,9.27
2023-03-21T10:19:18.112Z,9.57
2023-03-21T10:22:00.293Z,9.50
2023-03-21T10:24:29.165Z,10.00
2023-03-21T10:26:56.013Z,7.45
2023-03-21T10:29:26.426Z,8.70
2023-03-21T10:31:53.521Z,9.27
2023-03-21T10:34:50.176Z,11.13
2023-03-21T10:37:17.023Z,10.40
2023-03-21T10:39:45.656Z,9.77
2023-03-21T10:42:29.609Z,10.00
2023-03-21T10:44:57.511Z,10.88
2023-03-21T10:47:32.334Z,10.48
2023-03-21T10:50:08.957Z,10.52
2023-03-21T10:52:38.232Z,11.48
2023-03-21T10:55:18.776Z,11.98
2023-03-21T10:57:46.978Z,9.85
2023-03-21T11:00:26.507Z,12.13
2023-03-21T11:02:54.237Z,9.90
2023-03-21T11:05:42.201Z,10.48
2023-03-21T11:08:18.576Z,12.93
2023-03-21T11:10:55.899Z,11.05
2023-03-21T11:13:27.730Z,10.50
2023-03-21T11:15:59.843Z,11.40
2023-03-21T11:18:27.114Z,12.77
2023-03-21T11:21:04.090Z,9.93
2023-03-21T11:23:32.256Z,11.95
2023-03-21T11:25:59.632Z,11.40
2023-03-21T11:28:33.589Z,10.70
2023-03-21T11:31:03.853Z,10.55
2023-03-21T11:33:36.904Z,13.15
2023-03-21T11:36:05.028Z,10.82
2023-03-21T11:38:41.332Z,9.90
2023-03-21T11:41:08.451Z,9.95
2023-03-21T11:43:36.798Z,9.77
2023-03-21T11:46:08.507Z,10.20
2023-03-21T11:48:47.173Z,9.68
2023-03-21T11:51:21.097Z,9.65
2023-03-21T11:54:39.027Z,9.52
2023-03-21T11:57:12.022Z,10.35
2023-03-21T11:59:47.610Z,10.18
2023-03-21T12:02:55.249Z,9.95
2023-03-21T12:05:37.768Z,9.90
2023-03-21T12:08:07.566Z,9.80
2023-03-21T12:10:49.035Z,14.05
2023-03-21T12:13:31.125Z,13.30
2023-03-21T12:16:16.482Z,12.02
2023-03-21T12:18:56.200Z,11.40
2023-03-21T12:21:59.959Z,11.15
2023-03-21T12:24:31.432Z,11.30
2023-03-21T12:27:37.968Z,11.30
2023-03-21T12:30:14.109Z,11.38
2023-03-21T12:33:05.390Z,13.65
2023-03-21T12:35:54.349Z,12.15
2023-03-21T12:38:28.805Z,10.52
2023-03-21T12:41:17.523Z,11.23
2023-03-21T12:43:47.787Z,10.32
2023-03-21T12:46:46.580Z,10.93
2023-03-21T12:49:27.087Z,14.07
2023-03-21T12:52:03.860Z,11.48
2023-03-21T12:54:38.419Z,12.18
2023-03-21T12:57:16.484Z,12.27
2023-03-21T13:00:23.198Z,11.27
2023-03-21T13:02:51.338Z,12.00
2023-03-21T13:05:40.820Z,12.43
2023-03-21T13:08:37.472Z,14.48
2023-03-21T13:11:05.525Z,13.60
2023-03-21T13:13:39.177Z,11.15
2023-03-21T13:16:20.778Z,11.70
2023-03-21T13:19:01.603Z,11.80
2023-03-21T13:21:40.938Z,11.32
2023-03-21T13:24:32.559Z,10.90
2023-03-21T13:27:07.509Z,11.30
2023-03-21T13:30:09.820Z,12.82
2023-03-21T13:32:39.099Z,11.25
2023-03-21T13:35:09.810Z,14.05
2023-03-21T13:37:59.417Z,13.90
2023-03-21T13:40:28.585Z,11.88
2023-03-21T13:45:29.330Z,11.82
2023-03-21T13:48:00.461Z,14.85
2023-03-21T13:50:30.034Z,13.02
2023-03-21T13:53:15.534Z,14.30
2023-03-21T13:55:47.073Z,12.57
2023-03-21T13:58:39.310Z,12.32
2023-03-21T14:01:26.354Z,11.50
2023-03-21T14:04:18.634Z,12.15
2023-03-21T14:06:55.457Z,12.52
2023-03-21T14:09:43.937Z,13.73
2023-03-21T14:12:18.244Z,12.35
2023-03-21T14:14:50.845Z,14.63
2023-03-21T14:17:23.854Z,11.95
2023-03-21T14:19:55.027Z,11.68
2023-03-21T14:22:21.831Z,11.07
2023-03-21T14:25:01.549Z,12.50
2023-03-21T14:27:31.010Z,11.15
2023-03-21T14:29:58.779Z,12.00
2023-03-21T14:32:26.935Z,11.85
2023-03-21T14:34:57.884Z,11.65
2023-03-21T14:37:38.078Z,14.43
2023-03-21T14:40:09.221Z,12.95
2023-03-21T14:42:36.605Z,11.95
2023-03-21T14:45:28.556Z,11.68
2023-03-21T14:47:58.789Z,12.88
2023-03-21T14:50:35.958Z,12.30
2023-03-21T14:53:02.801Z,12.88
2023-03-21T14:55:29.654Z,12.15
2023-03-21T14:57:56.653Z,14.13
2023-03-21T15:00:29.540Z,15.07
2023-03-21T15:02:58.312Z,15.43
2023-03-21T15:05:38.013Z,14.82
2023-03-21T15:08:13.175Z,13.32
2023-03-21T15:10:39.988Z,12.02
2023-03-21T15:13:20.266Z,13.23
2023-03-21T15:15:47.223Z,11.50
2023-03-21T15:18:16.509Z,11.68
2023-03-21T15:20:43.540Z,11.63
2023-03-21T15:23:13.279Z,11.80
2023-03-21T15:25:40.333Z,12.75
2023-03-21T15:28:07.465Z,11.85
2023-03-21T15:30:34.482Z,16.33
2023-03-21T15:33:09.304Z,11.75
2023-03-21T15:35:46.166Z,11.77
2023-03-21T15:38:36.660Z,12.25
2023-03-21T15:41:21.889Z,11.90
2023-03-21T15:43:56.513Z,12.30
2023-03-21T15:46:46.716Z,13.30
2023-03-21T15:49:13.573Z,14.30
2023-03-21T15:51:45.341Z,13.90
2023-03-21T15:54:15.877Z,11.77
2023-03-21T15:56:46.108Z,12.32
2023-03-21T15:59:15.484Z,11.95
2023-03-21T16:01:42.273Z,12.98
2023-03-21T16:04:10.171Z,12.68
2023-03-21T16:06:38.393Z,11.75
2023-03-21T16:09:14.311Z,13.02
2023-03-21T16:11:41.170Z,12.63
2023-03-21T16:14:07.928Z,11.82
2023-03-21T16:16:34.928Z,12.75
2023-03-21T16:19:02.235Z,12.80
2023-03-21T16:21:30.724Z,13.20
2023-03-21T16:23:58.345Z,12.50
2023-03-21T16:26:30.236Z,11.52
2023-03-21T16:28:57.812Z,11.85
2023-03-21T16:31:26.649Z,13.65
2023-03-21T16:33:53.611Z,10.60
2023-03-21T16:36:25.004Z,12.00
2023-03-21T16:38:53.085Z,15.73
2023-03-21T16:41:20.443Z,14.48
2023-03-21T16:43:47.173Z,11.13
2023-03-21T16:46:24.892Z,11.38
2023-03-21T16:48:56.481Z,11.20
2023-03-21T16:51:31.749Z,11.40
2023-03-21T16:53:58.596Z,10.95
2023-03-21T16:56:27.619Z,10.20
2023-03-21T16:58:54.768Z,11.50
2023-03-21T17:01:26.022Z,11.32
2023-03-21T17:03:53.195Z,11.82
2023-03-21T17:06:21.873Z,10.48
2023-03-21T17:08:48.724Z,13.55
2023-03-21T17:11:17.049Z,10.90
2023-03-21T17:13:44.319Z,9.73
2023-03-21T17:16:12.688Z,12.00
2023-03-21T17:18:39.562Z,9.65
2023-03-21T17:21:23.096Z,12.43
2023-03-21T17:23:50.371Z,10.80
2023-03-21T17:26:27.877Z,11.43
2023-03-21T17:28:56.864Z,10.95
2023-03-21T17:31:24.612Z,10.00
2023-03-21T17:33:51.449Z,10.23
2023-03-21T17:36:19.136Z,9.63
2023-03-21T17:38:46.182Z,11.30
2023-03-21T17:41:14.128Z,12.93
2023-03-21T17:43:41.040Z,11.77
2023-03-21T17:46:11.297Z,10.32
2023-03-21T17:48:38.227Z,10.45
2023-03-21T17:51:05.354Z,10.65
2023-03-21T17:53:32.226Z,9.68
2023-03-21T17:55:59.021Z,10.00
2023-03-21T17:58:26.378Z,13.00
2023-03-21T18:00:53.526Z,11.73
2023-03-21T18:03:20.548Z,9.82
2023-03-21T18:05:47.392Z,13.15
2023-03-21T18:08:14.162Z,9.63
2023-03-21T18:10:41.788Z,9.32
2023-03-21T18:13:08.863Z,10.38
2023-03-21T18:15:37.955Z,11.30
2023-03-21T18:18:05.622Z,9.88
2023-03-21T18:23:20.362Z,11.63
2023-03-21T18:25:47.221Z,13.07
2023-03-21T18:28:14.133Z,12.25
2023-03-21T18:31:00.986Z,8.82
2023-03-21T18:33:30.165Z,11.65
2023-03-21T18:35:59.332Z,12.10
2023-03-21T18:38:27.900Z,10.93
2023-03-21T18:40:55.266Z,9.10
2023-03-21T18:46:09.147Z,15.13
2023-03-21T18:48:36.757Z,16.70
2023-03-21T18:51:04.002Z,15.02
2023-03-21T18:53:30.833Z,12.98
2023-03-21T18:55:58.035Z,11.23
2023-03-21T18:58:25.437Z,12.82
2023-03-21T19:00:53.902Z,11.38
2023-03-21T19:03:34.317Z,10.15
2023-03-21T19:06:04.141Z,9.60
2023-03-21T19:08:31.458Z,11.43
2023-03-21T19:11:00.251Z,12.07
2023-03-21T19:13:28.520Z,11.43
2023-03-21T19:15:56.226Z,11.82
2023-03-21T19:18:53.370Z,15.45
2023-03-21T19:21:10.005Z,13.25
2023-03-21T19:24:08.074Z,14.35
2023-03-21T19:26:27.103Z,9.65
2023-03-21T19:28:54.240Z,11.85
2023-03-21T19:31:21.559Z,13.75
2023-03-21T19:33:48.638Z,10.88
2023-03-21T19:36:21.751Z,13.00
2023-03-21T19:38:50.836Z,16.17
2023-03-21T19:41:18.479Z,15.55
2023-03-21T19:43:53.659Z,12.90
2023-03-21T19:46:25.295Z,11.20
2023-03-21T19:48:56.337Z,14.25
2023-03-21T19:51:28.666Z,22.52
2023-03-21T19:53:59.326Z,14.57
2023-03-21T19:56:27.658Z,13.18
2023-03-21T19:58:57.596Z,11.30
2023-03-21T20:03:52.814Z,11.35
2023-03-21T20:06:19.686Z,15.25
2023-03-21T20:11:33.937Z,12.38
2023-03-21T20:14:03.275Z,16.10
2023-03-21T20:16:34.912Z,11.38
2023-03-21T20:19:02.537Z,11.13
2023-03-21T20:21:40.148Z,12.55
2023-03-21T20:24:09.263Z,11.13
2023-03-21T20:26:37.567Z,15.98
2023-03-21T20:29:46.962Z,16.33
2023-03-21T20:31:53.432Z,20.20
2023-03-21T20:34:21.140Z,33.92
2023-03-21T20:36:48.478Z,14.20
2023-03-21T20:39:15.708Z,14.05
2023-03-21T20:41:42.570Z,14.55
2023-03-21T20:46:57.039Z,13.20
2023-03-21T20:49:24.502Z,12.30
2023-03-21T20:54:38.435Z,19.13
2023-03-21T20:57:05.289Z,18.92
2023-03-21T20:59:32.084Z,29.02
2023-03-21T21:01:59.133Z,13.38
2023-03-21T21:07:21.241Z,16.65
2023-03-21T21:09:48.241Z,17.60
2023-03-21T21:12:15.415Z,14.30
2023-03-21T21:14:42.479Z,13.27
2023-03-21T21:17:27.767Z,19.20
2023-03-21T21:19:57.400Z,19.77
2023-03-21T21:22:24.170Z,21.15
2023-03-21T21:24:51.400Z,15.38
2023-03-21T21:27:18.324Z,11.27
2023-03-21T21:29:47.890Z,13.38
2023-03-21T21:32:16.917Z,13.93
2023-03-21T21:34:43.845Z,11.85
2023-03-21T21:37:10.762Z,12.35
2023-03-21T21:39:40.321Z,12.63
2023-03-21T21:42:07.273Z,15.73
2023-03-21T21:44:34.037Z,13.65
2023-03-21T21:47:04.262Z,13.38
2023-03-21T21:49:31.481Z,17.55
2023-03-21T21:51:59.940Z,11.82
2023-03-21T21:54:30.274Z,12.77
2023-03-21T21:56:58.315Z,18.55
2023-03-21T21:59:25.067Z,16.27
2023-03-21T22:01:52.004Z,14.60
2023-03-21T22:04:19.954Z,16.10
2023-03-21T22:06:47.805Z,16.23
2023-03-21T22:09:16.001Z,14.90
2023-03-21T22:11:42.798Z,14.77
2023-03-21T22:14:09.536Z,16.58
2023-03-21T22:16:36.897Z,14.55
2023-03-21T22:19:03.846Z,14.73
2023-03-21T22:21:30.742Z,14.52
2023-03-21T22:23:57.552Z,17.40
2023-03-21T22:26:24.466Z,15.60
2023-03-21T22:28:51.297Z,14.40
2023-03-21T22:31:18.385Z,15.30
2023-03-21T22:33:45.595Z,12.95
2023-03-21T22:36:12.415Z,16.08
2023-03-21T22:38:42.058Z,18.77
2023-03-21T22:43:35.689Z,13.43
2023-03-21T22:46:03.530Z,21.63
2023-03-21T22:48:31.083Z,19.58
2023-03-21T22:50:58.647Z,12.63
2023-03-21T22:53:25.600Z,13.20
2023-03-21T22:55:52.568Z,16.15
2023-03-21T22:58:19.344Z,15.23
2023-03-21T23:00:47.320Z,16.30
2023-03-21T23:03:16.869Z,16.05
2023-03-21T23:05:43.943Z,12.88
2023-03-21T23:08:10.934Z,15.73
2023-03-21T23:10:39.421Z,22.08
2023-03-21T23:13:06.457Z,18.40
2023-03-21T23:15:33.199Z,20.90
2023-03-21T23:18:00.143Z,21.15
2023-03-21T23:20:26.958Z,19.52
2023-03-21T23:22:53.723Z,14.50
2023-03-21T23:25:20.781Z,14.77
2023-03-21T23:27:48.048Z,15.52
2023-03-21T23:30:14.877Z,21.50
2023-03-21T23:32:42.171Z,14.23
2023-03-21T23:35:09.552Z,16.50
2023-03-21T23:37:36.418Z,14.05
2023-03-21T23:40:06.436Z,15.18
2023-03-21T23:42:34.420Z,13.40
2023-03-21T23:45:01.348Z,16.52
2023-03-21T23:47:28.332Z,16.65
2023-03-21T23:49:55.211Z,17.85
2023-03-21T23:52:22.121Z,14.82
2023-03-21T23:54:49.063Z,12.70
2023-03-21T23:57:17.403Z,12.10
2023-03-21T23:59:44.336Z,14.70
